usa flag      colorado flag

Language: 

TigerDenWX History Data from Weather Underground


TigerDenWX Weather Station Historical Data
 
Daily Summary for December 13, 2017 Units:  English    Metric   Both
« Previous Day
Next Day »
Daily Weekly Monthly Yearly Custom
  Current: High: Low: Average:
Temperature: 50.5 °F 50.8 °F 34.3 °F 40.9 °F
Dew Point: 12.0 °F 14.4 °F 9.3 °F 11.5 °F
Humidity: 21 % 42 % 20 % 30 %
Wind Speed: 4.0 mph 5.0 mph 0.0 mph 0.6 mph
Wind Gust: 5.0 mph 12.0 mph - -
Wind:NNE - - East
Pressure: 30.02 in 30.14 in 30.02 in -
Precipitation: 0.00 in      
Historical Graphs
 
 
Tabular Data for December 13, 2017
Time Temperature Dew Point Pressure Wind Wind Speed Wind Gust Humidity Rainfall Rate (Hourly) solar
00:02 35.1 °F 14.3 °F 30.05 in Calm     42 % 0.00 in 0 W/m2
00:07 34.8 °F 13.5 °F 30.05 in Calm     41 % 0.00 in 0 W/m2
00:12 34.6 °F 12.7 °F 30.05 in Calm     40 % 0.00 in 0 W/m2
00:17 34.4 °F 13.1 °F 30.05 in Calm     41 % 0.00 in 0 W/m2
00:27 34.3 °F 11.9 °F 30.05 in Calm   1.0 mph 39 % 0.00 in 0 W/m2
00:32 34.6 °F 11.6 °F 30.04 in Calm   2.0 mph 38 % 0.00 in 0 W/m2
00:37 34.8 °F 11.7 °F 30.05 in Calm   2.0 mph 38 % 0.00 in 0 W/m2
00:42 35.1 °F 11.4 °F 30.04 in Calm   2.0 mph 37 % 0.00 in 0 W/m2
00:47 35.3 °F 11.6 °F 30.04 in Calm   1.0 mph 37 % 0.00 in 0 W/m2
00:57 35.4 °F 12.9 °F 30.04 in Calm   2.0 mph 39 % 0.00 in 0 W/m2
01:02 35.5 °F 14.1 °F 30.04 in Calm   2.0 mph 41 % 0.00 in 0 W/m2
01:12 35.2 °F 13.8 °F 30.04 in Calm     41 % 0.00 in 0 W/m2
01:17 35.0 °F 13.1 °F 30.04 in Calm     40 % 0.00 in 0 W/m2
01:22 34.7 °F 12.2 °F 30.03 in Calm     39 % 0.00 in 0 W/m2
01:32 34.8 °F 11.1 °F 30.03 in Calm   2.0 mph 37 % 0.00 in 0 W/m2
01:38 35.2 °F 10.9 °F 30.03 in Calm   2.0 mph 36 % 0.00 in 0 W/m2
01:48 35.9 °F 11.5 °F 30.03 in Calm   2.0 mph 36 % 0.00 in 0 W/m2
01:53 36.3 °F 11.2 °F 30.03 in Calm   3.0 mph 35 % 0.00 in 0 W/m2
01:58 36.6 °F 11.5 °F 30.03 in Calm   3.0 mph 35 % 0.00 in 0 W/m2
02:08 37.0 °F 11.2 °F 30.03 in Calm   2.0 mph 34 % 0.00 in 0 W/m2
02:18 37.1 °F 11.3 °F 30.03 in Calm   1.0 mph 34 % 0.00 in 0 W/m2
02:23 37.2 °F 10.7 °F 30.03 in Calm   1.0 mph 33 % 0.00 in 0 W/m2
02:33 37.7 °F 10.4 °F 30.03 in Calm   3.0 mph 32 % 0.00 in 0 W/m2
02:38 37.9 °F 9.9 °F 30.03 in Calm   3.0 mph 31 % 0.00 in 0 W/m2
02:43 38.3 °F 10.3 °F 30.03 in Calm   3.0 mph 31 % 0.00 in 0 W/m2
02:48 38.5 °F 9.7 °F 30.03 in Calm   2.0 mph 30 % 0.00 in 0 W/m2
02:53 38.5 °F 9.7 °F 30.03 in Calm     30 % 0.00 in 0 W/m2
03:03 37.4 °F 9.5 °F 30.03 in Calm   1.0 mph 31 % 0.00 in 0 W/m2
03:13 36.8 °F 9.7 °F 30.02 in Calm     32 % 0.00 in 0 W/m2
03:23 36.6 °F 9.5 °F 30.02 in Calm   1.0 mph 32 % 0.00 in 0 W/m2
03:28 35.8 °F 10.1 °F 30.02 in Calm   1.0 mph 34 % 0.00 in 0 W/m2
03:33 35.4 °F 11.1 °F 30.03 in Calm     36 % 0.00 in 0 W/m2
03:43 34.7 °F 11.0 °F 30.03 in Calm   1.0 mph 37 % 0.00 in 0 W/m2
03:48 34.6 °F 10.3 °F 30.03 in Calm   1.0 mph 36 % 0.00 in 0 W/m2
03:52 34.7 °F 10.4 °F 30.03 in Calm     36 % 0.00 in 0 W/m2
03:57 34.7 °F 9.8 °F 30.03 in Calm     35 % 0.00 in 0 W/m2
04:02 34.8 °F 10.5 °F 30.04 in Calm     36 % 0.00 in 0 W/m2
04:12 35.0 °F 11.3 °F 30.05 in Calm   1.0 mph 37 % 0.00 in 0 W/m2
04:17 35.1 °F 11.4 °F 30.05 in Calm   1.0 mph 37 % 0.00 in 0 W/m2
04:27 35.2 °F 12.7 °F 30.05 in Calm   1.0 mph 39 % 0.00 in 0 W/m2
04:37 35.2 °F 13.3 °F 30.05 in Calm     40 % 0.00 in 0 W/m2
04:42 35.2 °F 12.1 °F 30.06 in Calm     38 % 0.00 in 0 W/m2
04:52 35.3 °F 12.8 °F 30.06 in Calm   1.0 mph 39 % 0.00 in 0 W/m2
05:02 35.2 °F 13.3 °F 30.07 in Calm   1.0 mph 40 % 0.00 in 0 W/m2
05:07 35.2 °F 13.8 °F 30.07 in Calm   1.0 mph 41 % 0.00 in 0 W/m2
05:12 35.2 °F 13.8 °F 30.08 in Calm     41 % 0.00 in 0 W/m2
05:17 35.2 °F 13.8 °F 30.09 in Calm   1.0 mph 41 % 0.00 in 0 W/m2
05:22 35.2 °F 14.4 °F 30.09 in Calm   1.0 mph 42 % 0.00 in 0 W/m2
05:27 35.6 °F 13.0 °F 30.09 in NE 2.0 mph 6.0 mph 39 % 0.00 in 0 W/m2
05:32 37.5 °F 11.6 °F 30.09 in NE 5.0 mph 10.0 mph 34 % 0.00 in 0 W/m2
05:42 40.5 °F 9.9 °F 30.10 in Calm   9.0 mph 28 % 0.00 in 0 W/m2
05:47 40.9 °F 9.4 °F 30.10 in Calm   8.0 mph 27 % 0.00 in 0 W/m2
05:52 41.2 °F 9.7 °F 30.10 in ENE 1.0 mph 7.0 mph 27 % 0.00 in 0 W/m2
05:57 41.2 °F 9.7 °F 30.10 in Calm   11.0 mph 27 % 0.00 in 0 W/m2
06:07 41.0 °F 9.5 °F 30.10 in Calm   12.0 mph 27 % 0.00 in 0 W/m2
06:17 40.7 °F 9.3 °F 30.10 in East 2.0 mph 10.0 mph 27 % 0.00 in 0 W/m2
06:22 40.6 °F 10.0 °F 30.09 in ENE 1.0 mph 9.0 mph 28 % 0.00 in 0 W/m2
06:32 40.5 °F 9.9 °F 30.10 in Calm   9.0 mph 28 % 0.00 in 0 W/m2
06:42 40.6 °F 10.0 °F 30.10 in East 5.0 mph 8.0 mph 28 % 0.00 in 0 W/m2
06:57 40.7 °F 10.1 °F 30.12 in Calm   5.0 mph 28 % 0.00 in 0 W/m2
07:02 40.5 °F 11.4 °F 30.12 in Calm   2.0 mph 30 % 0.00 in 0 W/m2
07:07 40.4 °F 10.6 °F 30.13 in SE 2.0 mph 2.0 mph 29 % 0.00 in 0 W/m2
07:12 40.3 °F 10.5 °F 30.13 in Calm   2.0 mph 29 % 0.00 in 0 W/m2
07:17 40.2 °F 10.4 °F 30.13 in SE 2.0 mph 2.0 mph 29 % 0.00 in 0 W/m2
07:22 40.2 °F 10.4 °F 30.13 in Calm   3.0 mph 29 % 0.00 in 0 W/m2
07:27 40.2 °F 10.4 °F 30.13 in Calm   2.0 mph 29 % 0.00 in 0 W/m2
07:43 40.0 °F 11.0 °F 30.13 in Calm   1.0 mph 30 % 0.00 in 7 W/m2
07:48 39.8 °F 10.8 °F 30.13 in Calm   1.0 mph 30 % 0.00 in 12 W/m2
07:53 39.7 °F 10.0 °F 30.14 in Calm   1.0 mph 29 % 0.00 in 14 W/m2
08:03 39.5 °F 10.6 °F 30.13 in Calm     30 % 0.00 in 25 W/m2
08:08 39.5 °F 10.6 °F 30.14 in Calm   1.0 mph 30 % 0.00 in 30 W/m2
08:13 39.5 °F 11.3 °F 30.13 in Calm   1.0 mph 31 % 0.00 in 37 W/m2
08:18 39.6 °F 10.7 °F 30.14 in Calm   2.0 mph 30 % 0.00 in 42 W/m2
08:28 40.1 °F 11.1 °F 30.14 in Calm   2.0 mph 30 % 0.00 in 54 W/m2
08:33 40.3 °F 11.3 °F 30.14 in Calm   1.0 mph 30 % 0.00 in 65 W/m2
08:43 40.9 °F 11.0 °F 30.14 in Calm   2.0 mph 29 % 0.00 in 74 W/m2
08:48 41.3 °F 11.4 °F 30.14 in Calm   2.0 mph 29 % 0.00 in 83 W/m2
08:53 41.5 °F 11.6 °F 30.14 in SE 2.0 mph 2.0 mph 29 % 0.00 in 98 W/m2
08:58 41.8 °F 11.8 °F 30.14 in SE 1.0 mph 2.0 mph 29 % 0.00 in 109 W/m2
09:03 42.2 °F 11.4 °F 30.14 in Calm   2.0 mph 28 % 0.00 in 121 W/m2
09:08 42.6 °F 11.7 °F 30.14 in SE 3.0 mph 3.0 mph 28 % 0.00 in 139 W/m2
09:18 43.6 °F 12.6 °F 30.14 in Calm   3.0 mph 28 % 0.00 in 199 W/m2
09:23 44.3 °F 13.2 °F 30.14 in Calm   3.0 mph 28 % 0.00 in 380 W/m2
09:28 45.5 °F 13.4 °F 30.14 in Calm   3.0 mph 27 % 0.00 in 366 W/m2
09:33 46.7 °F 13.6 °F 30.14 in ENE 1.0 mph 5.0 mph 26 % 0.00 in 292 W/m2
09:38 47.3 °F 12.3 °F 30.14 in Calm   5.0 mph 24 % 0.00 in 171 W/m2
09:44 47.0 °F 12.0 °F 30.14 in Calm   5.0 mph 24 % 0.00 in 195 W/m2
09:49 46.7 °F 11.8 °F 30.14 in Calm   4.0 mph 24 % 0.00 in 162 W/m2
09:54 46.4 °F 11.5 °F 30.13 in Calm   3.0 mph 24 % 0.00 in 179 W/m2
09:59 46.3 °F 12.3 °F 30.13 in Calm   3.0 mph 25 % 0.00 in 202 W/m2
10:00 46.4 °F 12.4 °F 30.13 in ENE 1.0 mph 3.0 mph 25 % 0.00 in 264 W/m2
10:10 47.3 °F 12.3 °F 30.13 in Calm   6.0 mph 24 % 0.00 in 193 W/m2
10:17 47.0 °F 12.0 °F 30.13 in ESE 2.0 mph 4.0 mph 24 % 0.00 in 452 W/m2
10:22 47.2 °F 12.2 °F 30.13 in Calm   5.0 mph 24 % 0.00 in 271 W/m2
10:27 47.6 °F 12.5 °F 30.13 in ESE 2.0 mph 5.0 mph 24 % 0.00 in 163 W/m2
10:37 48.3 °F 11.2 °F 30.12 in Calm   7.0 mph 22 % 0.00 in 121 W/m2
10:47 48.4 °F 12.2 °F 30.11 in Calm   4.0 mph 23 % 0.00 in 452 W/m2
10:52 48.6 °F 11.4 °F 30.11 in NE 3.0 mph 6.0 mph 22 % 0.00 in 346 W/m2
10:57 48.6 °F 11.4 °F 30.10 in NE 2.0 mph 9.0 mph 22 % 0.00 in 134 W/m2
11:02 48.6 °F 11.4 °F 30.10 in NE 2.0 mph 9.0 mph 22 % 0.00 in 427 W/m2
11:07 48.7 °F 12.5 °F 30.10 in Calm   4.0 mph 23 % 0.00 in 271 W/m2
11:12 48.7 °F 11.5 °F 30.10 in ESE 2.0 mph 4.0 mph 22 % 0.00 in 155 W/m2
11:17 49.1 °F 11.8 °F 30.09 in NE 2.0 mph 3.0 mph 22 % 0.00 in 204 W/m2
11:32 50.0 °F 12.6 °F 30.08 in ESE 3.0 mph 6.0 mph 22 % 0.00 in 353 W/m2
11:37 50.5 °F 12.0 °F 30.08 in ENE 1.0 mph 3.0 mph 21 % 0.00 in 311 W/m2
11:47 50.7 °F 11.0 °F 30.07 in Calm   4.0 mph 20 % 0.00 in 497 W/m2
11:52 50.8 °F 11.1 °F 30.07 in ESE 3.0 mph 4.0 mph 20 % 0.00 in 519 W/m2
12:07 50.8 °F 12.2 °F 30.06 in ENE 2.0 mph 6.0 mph 21 % 0.00 in 427 W/m2
12:17 50.4 °F 11.9 °F 30.05 in ENE 5.0 mph 8.0 mph 21 % 0.00 in 181 W/m2
12:22 50.2 °F 11.7 °F 30.04 in NE 1.0 mph 8.0 mph 21 % 0.00 in 105 W/m2
12:32 50.3 °F 11.8 °F 30.04 in NE 3.0 mph 5.0 mph 21 % 0.00 in 207 W/m2
12:37 50.4 °F 11.9 °F 30.03 in SSW 3.0 mph 5.0 mph 21 % 0.00 in 285 W/m2
12:42 50.4 °F 11.9 °F 30.03 in ENE 3.0 mph 8.0 mph 21 % 0.00 in 292 W/m2
12:47 50.2 °F 11.7 °F 30.03 in NE 1.0 mph 8.0 mph 21 % 0.00 in 114 W/m2
12:52 50.0 °F 11.5 °F 30.03 in NNW 3.0 mph 6.0 mph 21 % 0.00 in 97 W/m2
13:03 50.1 °F 12.7 °F 30.03 in Calm   6.0 mph 22 % 0.00 in 98 W/m2
13:18 50.5 °F 12.0 °F 30.02 in NNE 4.0 mph 5.0 mph 21 % 0.00 in 283 W/m2
SE Aurora, Colorado Weather
Compliments of Weather Underground - 2 mb
top